Time;durP1;ratioP1;P1;durP2;ratioP2;P2;SDS_P1;SDS_P2;PMS_P1;PMS_P2;Temp;Humidity;BMP_temperature;BMP_pressure;BME280_temperature;BME280_humidity;BME280_pressure;Samples;Min_cycle;Max_cycle;Signal;HPM_P1;HPM_P2
2021/12/30 00:02:11;;;;;;;;;;;;;;;;;;5325969;28;19903;-67
2021/12/30 00:04:43;;;;;;;;;;;;;;;;;;5325924;28;19903;-68
2021/12/30 00:07:14;;;;;;;;;;;;;;;;;;5325022;28;19907;-68
2021/12/30 00:09:45;;;;;;;;;;;;;;;;;;5325281;28;20440;-69
2021/12/30 00:12:16;;;;;;;;;;;;;;;;;;5325421;28;19903;-68
2021/12/30 00:14:47;;;;;;;;;;;;;;;;;;5322621;28;19907;-68
2021/12/30 00:17:18;;;;;;;;;;;;;;;;;;5325704;28;19912;-68
2021/12/30 00:19:49;;;;;;;;;;;;;;;;;;5324650;28;20342;-68
2021/12/30 00:22:20;;;;;;;;;;;;;;;;;;5324482;28;19904;-68
2021/12/30 00:24:51;;;;;;;;;;;;;;;;;;5324688;28;19957;-68
2021/12/30 00:27:22;;;;;;;;;;;;;;;;;;5325413;28;19904;-66
2021/12/30 00:29:53;;;;;;;;;;;;;;;;;;5323994;28;19988;-67
2021/12/30 00:32:24;;;;;;;;;;;;;;;;;;5325138;28;20361;-67
2021/12/30 00:34:56;;;;;;;;;;;;;;;;;;5323788;28;20202;-66
2021/12/30 00:37:27;;;;;;;;;;;;;;;;;;5325443;28;19955;-67
2021/12/30 00:39:58;;;;;;;;;;;;;;;;;;5324423;28;19920;-67
2021/12/30 00:42:29;;;;;;;;;;;;;;;;;;5324340;28;19910;-66
2021/12/30 00:45:00;;;;;;;;;;;;;;;;;;5324817;28;19911;-67
2021/12/30 00:47:31;;;;;;;;;;;;;;;;;;5324863;28;19916;-67
2021/12/30 00:50:02;;;;;;;;;;;;;;;;;;5323821;28;19904;-67
2021/12/30 00:52:34;;;;;;;;;;;;;;;;;;5325349;28;19925;-67
2021/12/30 00:55:05;;;;;;;;;;;;;;;;;;5324427;28;19994;-67
2021/12/30 00:57:36;;;;;;;;;;;;;;;;;;5323988;28;19912;-67
2021/12/30 01:00:07;;;;;;;;;;;;;;;;;;5324484;28;19918;-68
2021/12/30 01:02:38;;;;;;;;;;;;;;;;;;5324072;28;19910;-68
2021/12/30 01:05:09;;;;;;;;;;;;;;;;;;5324047;28;19903;-67
2021/12/30 01:07:41;;;;;;;;;;;;;;;;;;5323917;28;19904;-67
2021/12/30 01:10:12;;;;;;;;;;;;;;;;;;5323995;28;20332;-69
2021/12/30 01:12:43;;;;;;;;;;;;;;;;;;5324079;28;19915;-67
2021/12/30 01:15:14;;;;;;;;;;;;;;;;;;5324692;28;19903;-68
2021/12/30 01:17:54;;;;;;;;;;;;;;;;;;5323068;28;19963;-68
2021/12/30 01:20:25;;;;;;;;;;;;;;;;;;5324724;28;19903;-68
2021/12/30 01:22:56;;;;;;;;;;;;;;;;;;5323551;28;19908;-67
2021/12/30 01:25:27;;;;;;;;;;;;;;;;;;5323153;28;19904;-67
2021/12/30 01:27:59;;;;;;;;;;;;;;;;;;5323999;28;19908;-67
2021/12/30 01:30:30;;;;;;;;;;;;;;;;;;5324441;28;19929;-68
2021/12/30 01:33:01;;;;;;;;;;;;;;;;;;5322924;28;20283;-67
2021/12/30 01:35:32;;;;;;;;;;;;;;;;;;5324239;28;20368;-67
2021/12/30 01:38:05;;;;;;;;;;;;;;;;;;5323500;28;19919;-67
2021/12/30 01:40:36;;;;;;;;;;;;;;;;;;5324047;28;19911;-68
2021/12/30 01:43:07;;;;;;;;;;;;;;;;;;5323813;28;19908;-67
2021/12/30 01:45:38;;;;;;;;;;;;;;;;;;5323004;28;19927;-67
2021/12/30 01:48:09;;;;;;;;;;;;;;;;;;5324010;28;19967;-69
2021/12/30 01:50:40;;;;;;;;;;;;;;;;;;5323889;28;20262;-68
2021/12/30 01:53:11;;;;;;;;;;;;;;;;;;5323987;28;19942;-68
2021/12/30 01:55:43;;;;;;;;;;;;;;;;;;5323611;28;19904;-68
2021/12/30 01:58:14;;;;;;;;;;;;;;;;;;5323944;28;20353;-68
2021/12/30 02:00:45;;;;;;;;;;;;;;;;;;5322813;28;19915;-68
2021/12/30 02:03:16;;;;;;;;;;;;;;;;;;5324094;28;20255;-68
2021/12/30 02:05:47;;;;;;;;;;;;;;;;;;5323686;28;19907;-69
2021/12/30 02:08:18;;;;;;;;;;;;;;;;;;5323490;28;20420;-68
2021/12/30 02:10:49;;;;;;;;;;;;;;;;;;5323278;28;19911;-68
2021/12/30 02:13:20;;;;;;;;;;;;;;;;;;5323375;28;19972;-68
2021/12/30 02:15:52;;;;;;;;;;;;;;;;;;5323718;28;19956;-68
2021/12/30 02:18:24;;;;;;;;;;;;;;;;;;5323841;28;19918;-68
2021/12/30 02:20:55;;;;;;;;;;;;;;;;;;5322536;28;20343;-68
2021/12/30 02:23:26;;;;;;;;;;;;;;;;;;5323761;28;19903;-68
2021/12/30 02:25:57;;;;;;;;;;;;;;;;;;5323585;28;20055;-68
2021/12/30 02:28:28;;;;;;;;;;;;;;;;;;5323151;28;19914;-68
2021/12/30 02:30:59;;;;;;;;;;;;;;;;;;5323165;28;19911;-68
2021/12/30 02:33:30;;;;;;;;;;;;;;;;;;5323815;28;19911;-68
2021/12/30 02:36:01;;;;;;;;;;;;;;;;;;5324553;28;19910;-69
2021/12/30 02:38:32;;;;;;;;;;;;;;;;;;5327560;28;19961;-68
2021/12/30 02:41:03;;;;;;;;;;;;;;;;;;5327077;28;20338;-68
2021/12/30 02:43:34;;;;;;;;;;;;;;;;;;5326709;28;19945;-68
2021/12/30 02:46:06;;;;;;;;;;;;;;;;;;5326838;28;19903;-68
2021/12/30 02:48:37;;;;;;;;;;;;;;;;;;5325773;28;19982;-68
2021/12/30 02:51:08;;;;;;;;;;;;;;;;;;5327119;28;20382;-68
2021/12/30 02:53:39;;;;;;;;;;;;;;;;;;5326824;28;19972;-68
2021/12/30 02:56:10;;;;;;;;;;;;;;;;;;5326318;28;19911;-68
2021/12/30 02:58:41;;;;;;;;;;;;;;;;;;5326829;28;19910;-69
2021/12/30 03:01:12;;;;;;;;;;;;;;;;;;5327298;28;19903;-68
2021/12/30 03:03:43;;;;;;;;;;;;;;;;;;5325621;28;19912;-69
2021/12/30 03:06:14;;;;;;;;;;;;;;;;;;5327181;28;19903;-69
2021/12/30 03:08:45;;;;;;;;;;;;;;;;;;5326546;28;19904;-69
2021/12/30 03:11:16;;;;;;;;;;;;;;;;;;5326379;28;19904;-68
2021/12/30 03:13:48;;;;;;;;;;;;;;;;;;5326654;28;19904;-68
2021/12/30 03:16:19;;;;;;;;;;;;;;;;;;5327250;28;19908;-68
2021/12/30 03:18:50;;;;;;;;;;;;;;;;;;5326296;28;19904;-69
2021/12/30 03:21:21;;;;;;;;;;;;;;;;;;5326951;28;20358;-68
2021/12/30 03:23:53;;;;;;;;;;;;;;;;;;5325681;28;19990;-68
2021/12/30 03:26:24;;;;;;;;;;;;;;;;;;5327081;28;19904;-68
2021/12/30 03:28:55;;;;;;;;;;;;;;;;;;5326323;28;19939;-69
2021/12/30 03:31:26;;;;;;;;;;;;;;;;;;5326133;28;20005;-69
2021/12/30 03:33:57;;;;;;;;;;;;;;;;;;5325933;28;19995;-69
2021/12/30 03:36:28;;;;;;;;;;;;;;;;;;5326365;28;19919;-69
2021/12/30 03:38:59;;;;;;;;;;;;;;;;;;5325120;28;20321;-68
2021/12/30 03:41:31;;;;;;;;;;;;;;;;;;5326291;28;20297;-69
2021/12/30 03:44:02;;;;;;;;;;;;;;;;;;5326065;28;20356;-68
2021/12/30 03:46:33;;;;;;;;;;;;;;;;;;5324637;28;19994;-69
2021/12/30 03:49:06;;;;;;;;;;;;;;;;;;5325052;28;19919;-69
2021/12/30 03:51:39;;;;;;;;;;;;;;;;;;5325957;28;20363;-69
2021/12/30 03:54:10;;;;;;;;;;;;;;;;;;5325339;28;19911;-69
2021/12/30 03:56:41;;;;;;;;;;;;;;;;;;5325415;28;19912;-69
2021/12/30 03:59:13;;;;;;;;;;;;;;;;;;5325412;28;19903;-68
2021/12/30 04:01:45;;;;;;;;;;;;;;;;;;5325499;27;20045;-68
2021/12/30 04:04:16;;;;;;;;;;;;;;;;;;5326111;28;19994;-69
2021/12/30 04:06:47;;;;;;;;;;;;;;;;;;5324726;28;19904;-69
2021/12/30 04:09:18;;;;;;;;;;;;;;;;;;5325603;28;20389;-68
2021/12/30 04:11:49;;;;;;;;;;;;;;;;;;5325132;28;20431;-68
2021/12/30 04:14:20;;;;;;;;;;;;;;;;;;5325328;28;19904;-68
2021/12/30 04:16:51;;;;;;;;;;;;;;;;;;5324731;28;19919;-68
2021/12/30 04:19:22;;;;;;;;;;;;;;;;;;5325485;28;20358;-68
2021/12/30 04:21:56;;;;;;;;;;;;;;;;;;5324315;28;20006;-66
2021/12/30 04:24:27;;;;;;;;;;;;;;;;;;5325177;27;19908;-67
2021/12/30 04:26:58;;;;;;;;;;;;;;;;;;5324098;28;19914;-68
2021/12/30 04:29:29;;;;;;;;;;;;;;;;;;5325319;28;20362;-68
2021/12/30 04:32:00;;;;;;;;;;;;;;;;;;5324825;28;19903;-68
2021/12/30 04:34:31;;;;;;;;;;;;;;;;;;5324380;28;19903;-68
2021/12/30 04:37:02;;;;;;;;;;;;;;;;;;5324426;28;20369;-67
2021/12/30 04:39:33;;;;;;;;;;;;;;;;;;5325613;28;19903;-67
2021/12/30 04:42:05;;;;;;;;;;;;;;;;;;5324594;28;19949;-67
2021/12/30 04:44:36;;;;;;;;;;;;;;;;;;5325960;28;20354;-67
2021/12/30 04:47:07;;;;;;;;;;;;;;;;;;5324842;28;19904;-67
2021/12/30 04:49:38;;;;;;;;;;;;;;;;;;5324343;28;19968;-68
2021/12/30 04:52:09;;;;;;;;;;;;;;;;;;5325267;28;20316;-68
2021/12/30 04:54:40;;;;;;;;;;;;;;;;;;5325036;28;19904;-67
2021/12/30 04:57:11;;;;;;;;;;;;;;;;;;5324408;28;20278;-67
2021/12/30 04:59:42;;;;;;;;;;;;;;;;;;5324108;28;19904;-67
2021/12/30 05:02:13;;;;;;;;;;;;;;;;;;5323874;28;19939;-67
2021/12/30 05:04:44;;;;;;;;;;;;;;;;;;5324202;28;19908;-66
2021/12/30 05:07:16;;;;;;;;;;;;;;;;;;5324985;28;20259;-67
2021/12/30 05:09:47;;;;;;;;;;;;;;;;;;5323473;28;20381;-66
2021/12/30 05:12:18;;;;;;;;;;;;;;;;;;5325097;28;20009;-67
2021/12/30 05:14:49;;;;;;;;;;;;;;;;;;5324327;28;20048;-68
2021/12/30 05:17:20;;;;;;;;;;;;;;;;;;5324096;28;19911;-67
2021/12/30 05:19:51;;;;;;;;;;;;;;;;;;5324319;28;19934;-68
2021/12/30 05:22:22;;;;;;;;;;;;;;;;;;5324853;28;20266;-67
2021/12/30 05:24:53;;;;;;;;;;;;;;;;;;5323352;28;19907;-68
2021/12/30 05:27:24;;;;;;;;;;;;;;;;;;5325259;28;19908;-68
2021/12/30 05:29:55;;;;;;;;;;;;;;;;;;5324119;28;19903;-67
2021/12/30 05:32:26;;;;;;;;;;;;;;;;;;5323800;28;20263;-68
2021/12/30 05:34:57;;;;;;;;;;;;;;;;;;5323806;28;19912;-69
2021/12/30 05:37:29;;;;;;;;;;;;;;;;;;5323733;28;20006;-68
2021/12/30 05:40:00;;;;;;;;;;;;;;;;;;5324447;28;19904;-68
2021/12/30 05:42:31;;;;;;;;;;;;;;;;;;5324741;28;19989;-68
2021/12/30 05:45:02;;;;;;;;;;;;;;;;;;5323461;28;20247;-68
2021/12/30 05:47:36;;;;;;;;;;;;;;;;;;5324131;28;19923;-68
2021/12/30 05:50:07;;;;;;;;;;;;;;;;;;5324058;28;19904;-68
2021/12/30 05:52:38;;;;;;;;;;;;;;;;;;5323135;28;19914;-68
2021/12/30 05:55:09;;;;;;;;;;;;;;;;;;5324494;28;19910;-68
2021/12/30 05:57:40;;;;;;;;;;;;;;;;;;5323639;28;20002;-68
2021/12/30 06:00:11;;;;;;;;;;;;;;;;;;5323510;28;19992;-68
2021/12/30 06:02:43;;;;;;;;;;;;;;;;;;5323745;28;19910;-68
2021/12/30 06:05:14;;;;;;;;;;;;;;;;;;5324404;28;20430;-68
2021/12/30 06:07:45;;;;;;;;;;;;;;;;;;5322947;28;20339;-68
2021/12/30 06:10:16;;;;;;;;;;;;;;;;;;5325202;28;19949;-68
2021/12/30 06:12:47;;;;;;;;;;;;;;;;;;5327042;28;19903;-69
2021/12/30 06:15:19;;;;;;;;;;;;;;;;;;5328278;28;20265;-68
2021/12/30 06:17:50;;;;;;;;;;;;;;;;;;5327889;28;19951;-66
2021/12/30 06:20:21;;;;;;;;;;;;;;;;;;5327287;28;19903;-67
2021/12/30 06:22:52;;;;;;;;;;;;;;;;;;5327381;28;19903;-67
2021/12/30 06:25:23;;;;;;;;;;;;;;;;;;5327829;28;19904;-67
2021/12/30 06:27:54;;;;;;;;;;;;;;;;;;5326791;28;19908;-67
2021/12/30 06:30:25;;;;;;;;;;;;;;;;;;5328013;28;20263;-67
2021/12/30 06:32:56;;;;;;;;;;;;;;;;;;5327533;28;19908;-68
2021/12/30 06:35:34;;;;;;;;;;;;;;;;;;5327009;28;19907;-67
2021/12/30 06:38:05;;;;;;;;;;;;;;;;;;5326929;27;19915;-67
2021/12/30 06:40:36;;;;;;;;;;;;;;;;;;5327039;28;19964;-68
2021/12/30 06:43:09;;;;;;;;;;;;;;;;;;5327378;28;19914;-68
2021/12/30 06:45:40;;;;;;;;;;;;;;;;;;5326905;28;19910;-68
2021/12/30 06:48:14;;;;;;;;;;;;;;;;;;5326677;28;19937;-68
2021/12/30 06:50:54;;;;;;;;;;;;;;;;;;5327130;28;19989;-68
2021/12/30 06:53:25;;;;;;;;;;;;;;;;;;5327306;28;19904;-68
2021/12/30 06:55:56;;;;;;;;;;;;;;;;;;5326457;28;19908;-69
2021/12/30 06:58:27;;;;;;;;;;;;;;;;;;5327836;28;19918;-67
2021/12/30 07:00:58;;;;;;;;;;;;;;;;;;5327629;28;19942;-67
2021/12/30 07:03:29;;;;;;;;;;;;;;;;;;5327174;28;19904;-68
2021/12/30 07:06:00;;;;;;;;;;;;;;;;;;5326927;28;20308;-68
2021/12/30 07:08:32;;;;;;;;;;;;;;;;;;5327590;28;20361;-68
2021/12/30 07:11:03;;;;;;;;;;;;;;;;;;5325696;28;19904;-69
2021/12/30 07:13:34;;;;;;;;;;;;;;;;;;5327627;28;19908;-67
2021/12/30 07:16:05;;;;;;;;;;;;;;;;;;5326158;28;20281;-68
2021/12/30 07:18:36;;;;;;;;;;;;;;;;;;5326981;28;20286;-67
2021/12/30 07:21:07;;;;;;;;;;;;;;;;;;5326658;28;19911;-68
2021/12/30 07:23:38;;;;;;;;;;;;;;;;;;5324640;28;19904;-68
2021/12/30 07:26:09;;;;;;;;;;;;;;;;;;5326563;28;20270;-67
2021/12/30 07:28:40;;;;;;;;;;;;;;;;;;5326741;28;19904;-68
2021/12/30 07:31:11;;;;;;;;;;;;;;;;;;5326576;28;19964;-67
2021/12/30 07:33:43;;;;;;;;;;;;;;;;;;5326965;28;19904;-67
2021/12/30 07:36:14;;;;;;;;;;;;;;;;;;5327101;28;20359;-68
2021/12/30 07:38:45;;;;;;;;;;;;;;;;;;5325420;28;19907;-68
2021/12/30 07:41:16;;;;;;;;;;;;;;;;;;5326556;28;20336;-68
2021/12/30 07:43:47;;;;;;;;;;;;;;;;;;5325849;28;19904;-68
2021/12/30 07:46:18;;;;;;;;;;;;;;;;;;5325484;28;19915;-68
2021/12/30 07:48:49;;;;;;;;;;;;;;;;;;5325543;28;19916;-67
2021/12/30 07:51:20;;;;;;;;;;;;;;;;;;5325590;28;20274;-68
2021/12/30 07:53:51;;;;;;;;;;;;;;;;;;5325636;28;19935;-67
2021/12/30 07:56:22;;;;;;;;;;;;;;;;;;5326324;28;19904;-68
2021/12/30 07:58:53;;;;;;;;;;;;;;;;;;5325350;28;19960;-68
2021/12/30 08:01:25;;;;;;;;;;;;;;;;;;5327279;28;19903;-67
2021/12/30 08:03:56;;;;;;;;;;;;;;;;;;5325452;28;20299;-67
2021/12/30 08:06:28;;;;;;;;;;;;;;;;;;5325306;28;19952;-68
2021/12/30 08:08:59;;;;;;;;;;;;;;;;;;5325204;28;19911;-67
2021/12/30 08:11:30;;;;;;;;;;;;;;;;;;5325556;28;19908;-67
2021/12/30 08:14:01;;;;;;;;;;;;;;;;;;5324446;28;19904;-67
2021/12/30 08:16:32;;;;;;;;;;;;;;;;;;5325657;28;19919;-67
2021/12/30 08:19:04;;;;;;;;;;;;;;;;;;5324298;28;19903;-67
2021/12/30 08:21:35;;;;;;;;;;;;;;;;;;5325611;28;19910;-67
2021/12/30 08:24:06;;;;;;;;;;;;;;;;;;5324621;28;19904;-67
2021/12/30 08:26:37;;;;;;;;;;;;;;;;;;5324123;28;19904;-68
2021/12/30 08:29:08;;;;;;;;;;;;;;;;;;5325434;28;20418;-68
2021/12/30 08:31:39;;;;;;;;;;;;;;;;;;5325300;28;19908;-68
2021/12/30 08:34:10;;;;;;;;;;;;;;;;;;5323700;28;20362;-68
2021/12/30 08:36:41;;;;;;;;;;;;;;;;;;5324857;28;20266;-67
2021/12/30 08:39:13;;;;;;;;;;;;;;;;;;5325264;28;19904;-69
2021/12/30 08:41:44;;;;;;;;;;;;;;;;;;5323676;28;19956;-68
2021/12/30 08:44:15;;;;;;;;;;;;;;;;;;5325332;28;19957;-67
2021/12/30 08:46:46;;;;;;;;;;;;;;;;;;5324544;28;19904;-67
2021/12/30 08:49:17;;;;;;;;;;;;;;;;;;5324239;28;19966;-67
2021/12/30 08:51:48;;;;;;;;;;;;;;;;;;5324636;28;19908;-69
2021/12/30 08:54:19;;;;;;;;;;;;;;;;;;5324153;28;20366;-68
2021/12/30 08:56:50;;;;;;;;;;;;;;;;;;5324232;28;19964;-67
2021/12/30 08:59:21;;;;;;;;;;;;;;;;;;5308707;28;20332;-68
2021/12/30 09:01:52;;;;;;;;;;;;;;;;;;5310630;28;19951;-67
2021/12/30 09:04:24;;;;;;;;;;;;;;;;;;5323422;28;19904;-66
2021/12/30 09:06:55;;;;;;;;;;;;;;;;;;5323193;28;19907;-70
2021/12/30 09:09:26;;;;;;;;;;;;;;;;;;5320646;28;20326;-66
2021/12/30 09:11:57;;;;;;;;;;;;;;;;;;5321907;28;19907;-68
2021/12/30 09:14:28;;;;;;;;;;;;;;;;;;5322337;28;19914;-69
2021/12/30 09:16:59;;;;;;;;;;;;;;;;;;5321324;28;20375;-68
2021/12/30 09:19:30;;;;;;;;;;;;;;;;;;5322693;28;19904;-67
2021/12/30 09:22:02;;;;;;;;;;;;;;;;;;5321717;28;19903;-68
2021/12/30 09:24:33;;;;;;;;;;;;;;;;;;5321329;28;19910;-68
2021/12/30 09:27:04;;;;;;;;;;;;;;;;;;5322833;28;19903;-68
2021/12/30 09:29:35;;;;;;;;;;;;;;;;;;5322597;28;19904;-68
2021/12/30 09:32:06;;;;;;;;;;;;;;;;;;5322206;28;20347;-67
2021/12/30 09:34:38;;;;;;;;;;;;;;;;;;5322026;28;19904;-68
2021/12/30 09:37:10;;;;;;;;;;;;;;;;;;5322509;28;19912;-68
2021/12/30 09:39:41;;;;;;;;;;;;;;;;;;5322573;28;19948;-68
2021/12/30 09:42:13;;;;;;;;;;;;;;;;;;5323024;28;20282;-69
2021/12/30 09:44:44;;;;;;;;;;;;;;;;;;5321966;28;19903;-68
2021/12/30 09:47:15;;;;;;;;;;;;;;;;;;5327511;28;20262;-68
2021/12/30 09:49:50;;;;;;;;;;;;;;;;;;5326593;28;19918;-69
2021/12/30 09:52:21;;;;;;;;;;;;;;;;;;5326442;28;19911;-68
2021/12/30 09:54:52;;;;;;;;;;;;;;;;;;5326718;28;19904;-68
2021/12/30 09:57:23;;;;;;;;;;;;;;;;;;5326951;28;19919;-69
2021/12/30 09:59:55;;;;;;;;;;;;;;;;;;5325505;28;19911;-69
2021/12/30 10:02:26;;;;;;;;;;;;;;;;;;5326727;28;20003;-69
2021/12/30 10:04:57;;;;;;;;;;;;;;;;;;5326034;28;19915;-68
2021/12/30 10:07:28;;;;;;;;;;;;;;;;;;5327054;28;19960;-68
2021/12/30 10:10:02;;;;;;;;;;;;;;;;;;5326446;28;19943;-67
2021/12/30 10:12:33;;;;;;;;;;;;;;;;;;5326737;28;19991;-67
2021/12/30 10:15:05;;;;;;;;;;;;;;;;;;5325784;28;20086;-67
2021/12/30 10:17:36;;;;;;;;;;;;;;;;;;5326543;28;19918;-69
2021/12/30 10:20:07;;;;;;;;;;;;;;;;;;5325761;28;19915;-68
2021/12/30 10:22:38;;;;;;;;;;;;;;;;;;5326215;28;19907;-68
2021/12/30 10:25:09;;;;;;;;;;;;;;;;;;5326974;28;20263;-68
2021/12/30 10:27:40;;;;;;;;;;;;;;;;;;5324921;28;19903;-68
2021/12/30 10:30:11;;;;;;;;;;;;;;;;;;5326527;28;20346;-68
2021/12/30 10:32:42;;;;;;;;;;;;;;;;;;5325126;28;19982;-68
2021/12/30 10:35:14;;;;;;;;;;;;;;;;;;5326907;28;19907;-67
2021/12/30 10:37:45;;;;;;;;;;;;;;;;;;5327271;27;19916;-67
2021/12/30 10:40:16;;;;;;;;;;;;;;;;;;5326804;28;19994;-69
2021/12/30 10:42:47;;;;;;;;;;;;;;;;;;5327025;28;19908;-67
2021/12/30 10:45:18;;;;;;;;;;;;;;;;;;5327635;28;19912;-67
2021/12/30 10:47:49;;;;;;;;;;;;;;;;;;5325990;28;19970;-67
2021/12/30 10:50:20;;;;;;;;;;;;;;;;;;5327699;28;20273;-66
2021/12/30 10:52:51;;;;;;;;;;;;;;;;;;5326827;28;19903;-67
2021/12/30 10:55:23;;;;;;;;;;;;;;;;;;5326561;28;19908;-67
2021/12/30 10:57:56;;;;;;;;;;;;;;;;;;5326213;28;19955;-67
2021/12/30 11:00:27;;;;;;;;;;;;;;;;;;5326740;28;19907;-67
2021/12/30 11:02:58;;;;;;;;;;;;;;;;;;5325646;28;19930;-67
2021/12/30 11:05:30;;;;;;;;;;;;;;;;;;5326490;28;19904;-67
2021/12/30 11:08:01;;;;;;;;;;;;;;;;;;5324363;28;19904;-67
2021/12/30 11:10:33;;;;;;;;;;;;;;;;;;5326321;28;20421;-67
2021/12/30 11:13:04;;;;;;;;;;;;;;;;;;5326439;28;20259;-68
2021/12/30 11:15:35;;;;;;;;;;;;;;;;;;5326580;28;19958;-67
2021/12/30 11:18:06;;;;;;;;;;;;;;;;;;5326158;28;19919;-68
2021/12/30 11:20:37;;;;;;;;;;;;;;;;;;5326750;28;19908;-67
2021/12/30 11:23:08;;;;;;;;;;;;;;;;;;5325572;28;20010;-67
2021/12/30 11:25:39;;;;;;;;;;;;;;;;;;5326129;28;20312;-68
2021/12/30 11:28:10;;;;;;;;;;;;;;;;;;5326580;28;19911;-67
2021/12/30 11:30:41;;;;;;;;;;;;;;;;;;5325521;28;19954;-68
2021/12/30 11:33:13;;;;;;;;;;;;;;;;;;5325675;28;19956;-67
2021/12/30 11:35:44;;;;;;;;;;;;;;;;;;5325698;28;19959;-67
2021/12/30 11:38:15;;;;;;;;;;;;;;;;;;5325571;28;19911;-67
2021/12/30 11:40:46;;;;;;;;;;;;;;;;;;5325192;28;19986;-69
2021/12/30 11:43:17;;;;;;;;;;;;;;;;;;5325449;28;19947;-68
2021/12/30 11:45:48;;;;;;;;;;;;;;;;;;5323418;28;19948;-68
2021/12/30 11:48:19;;;;;;;;;;;;;;;;;;5324719;28;19994;-68
2021/12/30 11:50:50;;;;;;;;;;;;;;;;;;5323777;28;19903;-68
2021/12/30 11:53:21;;;;;;;;;;;;;;;;;;5324887;28;19904;-68
2021/12/30 11:55:53;;;;;;;;;;;;;;;;;;5324280;28;19904;-68
2021/12/30 11:58:24;;;;;;;;;;;;;;;;;;5323515;28;19915;-68
2021/12/30 12:00:55;;;;;;;;;;;;;;;;;;5324232;28;19953;-67
2021/12/30 12:03:26;;;;;;;;;;;;;;;;;;5324594;28;19900;-67
2021/12/30 12:05:57;;;;;;;;;;;;;;;;;;5323168;28;19926;-68
2021/12/30 12:08:28;;;;;;;;;;;;;;;;;;5324130;28;20365;-68
2021/12/30 12:10:59;;;;;;;;;;;;;;;;;;5323330;28;19943;-68
2021/12/30 12:13:31;;;;;;;;;;;;;;;;;;5323889;28;19903;-68
2021/12/30 12:16:02;;;;;;;;;;;;;;;;;;5323926;28;19899;-68
2021/12/30 12:18:33;;;;;;;;;;;;;;;;;;5323635;28;19916;-69
2021/12/30 12:21:04;;;;;;;;;;;;;;;;;;5323781;28;19936;-68
2021/12/30 12:23:35;;;;;;;;;;;;;;;;;;5323383;28;19998;-68
2021/12/30 12:26:07;;;;;;;;;;;;;;;;;;5322979;28;20359;-68
2021/12/30 12:28:38;;;;;;;;;;;;;;;;;;5323818;28;19911;-68
2021/12/30 12:31:09;;;;;;;;;;;;;;;;;;5324000;28;20462;-68
2021/12/30 12:33:40;;;;;;;;;;;;;;;;;;5322402;28;19926;-68
2021/12/30 12:36:11;;;;;;;;;;;;;;;;;;5323716;28;19916;-68
2021/12/30 12:38:42;;;;;;;;;;;;;;;;;;5323045;28;20332;-69
2021/12/30 12:41:13;;;;;;;;;;;;;;;;;;5323316;28;19935;-67
2021/12/30 12:43:44;;;;;;;;;;;;;;;;;;5324418;28;20431;-68
2021/12/30 12:46:15;;;;;;;;;;;;;;;;;;5324536;28;19903;-68
2021/12/30 12:48:46;;;;;;;;;;;;;;;;;;5324122;28;20006;-67
2021/12/30 12:51:17;;;;;;;;;;;;;;;;;;5325129;28;20312;-67
2021/12/30 12:53:48;;;;;;;;;;;;;;;;;;5322870;28;19960;-67
2021/12/30 12:56:20;;;;;;;;;;;;;;;;;;5324900;28;19986;-67
2021/12/30 12:58:51;;;;;;;;;;;;;;;;;;5323305;28;19912;-67
2021/12/30 13:01:22;;;;;;;;;;;;;;;;;;5323905;28;20318;-67
2021/12/30 13:03:53;;;;;;;;;;;;;;;;;;5324348;28;19958;-67
2021/12/30 13:06:24;;;;;;;;;;;;;;;;;;5325006;28;19949;-67
2021/12/30 13:08:55;;;;;;;;;;;;;;;;;;5323356;28;19911;-67
2021/12/30 13:11:26;;;;;;;;;;;;;;;;;;5324614;28;20321;-68
2021/12/30 13:13:57;;;;;;;;;;;;;;;;;;5323819;28;19914;-67
2021/12/30 13:16:28;;;;;;;;;;;;;;;;;;5323480;28;19947;-67
2021/12/30 13:18:59;;;;;;;;;;;;;;;;;;5324077;28;20243;-68
2021/12/30 13:21:31;;;;;;;;;;;;;;;;;;5323620;28;19904;-67
2021/12/30 13:24:02;;;;;;;;;;;;;;;;;;5323690;28;19927;-67
2021/12/30 13:26:33;;;;;;;;;;;;;;;;;;5322451;28;20014;-67
2021/12/30 13:29:04;;;;;;;;;;;;;;;;;;5322010;28;20056;-67
2021/12/30 13:31:35;;;;;;;;;;;;;;;;;;5323309;28;20002;-67
2021/12/30 13:34:06;;;;;;;;;;;;;;;;;;5322648;28;19980;-67
2021/12/30 13:36:37;;;;;;;;;;;;;;;;;;5321680;28;19904;-67
2021/12/30 13:39:08;;;;;;;;;;;;;;;;;;5322862;28;19911;-66
2021/12/30 13:41:40;;;;;;;;;;;;;;;;;;5322604;28;19903;-67
2021/12/30 13:44:11;;;;;;;;;;;;;;;;;;5322244;28;19947;-67
2021/12/30 13:46:42;;;;;;;;;;;;;;;;;;5322545;28;19957;-66
2021/12/30 13:49:13;;;;;;;;;;;;;;;;;;5323073;28;19916;-67
2021/12/30 13:51:44;;;;;;;;;;;;;;;;;;5321732;28;19943;-67
2021/12/30 13:54:16;;;;;;;;;;;;;;;;;;5323148;28;19926;-67
2021/12/30 13:56:47;;;;;;;;;;;;;;;;;;5321708;28;19912;-67
2021/12/30 13:59:18;;;;;;;;;;;;;;;;;;5322936;28;20272;-67
2021/12/30 14:01:49;;;;;;;;;;;;;;;;;;5322529;28;19910;-67
2021/12/30 14:04:24;;;;;;;;;;;;;;;;;;5322010;28;19903;-68
2021/12/30 14:06:55;;;;;;;;;;;;;;;;;;5317447;28;20411;-67
2021/12/30 14:09:26;;;;;;;;;;;;;;;;;;5322542;28;19904;-67
2021/12/30 14:12:02;;;;;;;;;;;;;;;;;;5321378;28;20262;-67
2021/12/30 14:14:35;;;;;;;;;;;;;;;;;;5322813;28;19942;-67
2021/12/30 14:17:08;;;;;;;;;;;;;;;;;;5322216;28;19919;-67
2021/12/30 14:19:39;;;;;;;;;;;;;;;;;;5321028;28;19904;-68
2021/12/30 14:22:10;;;;;;;;;;;;;;;;;;5322253;28;20247;-67
2021/12/30 14:24:41;;;;;;;;;;;;;;;;;;5322199;28;20316;-67
2021/12/30 14:27:12;;;;;;;;;;;;;;;;;;5322007;28;19950;-67
2021/12/30 14:29:43;;;;;;;;;;;;;;;;;;5322164;28;19927;-67
2021/12/30 14:32:16;;;;;;;;;;;;;;;;;;5323411;28;20015;-68
2021/12/30 14:34:49;;;;;;;;;;;;;;;;;;5325438;28;20002;-67
2021/12/30 14:37:25;;;;;;;;;;;;;;;;;;5326283;28;19911;-67
2021/12/30 14:39:56;;;;;;;;;;;;;;;;;;5325317;28;20412;-67
2021/12/30 14:42:27;;;;;;;;;;;;;;;;;;5326141;28;19943;-67
2021/12/30 14:44:58;;;;;;;;;;;;;;;;;;5325115;28;19907;-68
2021/12/30 14:47:30;;;;;;;;;;;;;;;;;;5325504;28;20227;-67
2021/12/30 14:50:02;;;;;;;;;;;;;;;;;;5325929;28;19911;-67
2021/12/30 14:52:33;;;;;;;;;;;;;;;;;;5325826;28;19916;-67
2021/12/30 14:55:04;;;;;;;;;;;;;;;;;;5324551;28;20533;-68
2021/12/30 14:57:35;;;;;;;;;;;;;;;;;;5324729;28;19912;-68
2021/12/30 15:00:06;;;;;;;;;;;;;;;;;;5324437;28;19939;-67
2021/12/30 15:02:37;;;;;;;;;;;;;;;;;;5325028;28;19903;-67
2021/12/30 15:05:08;;;;;;;;;;;;;;;;;;5325766;28;20282;-67
2021/12/30 15:07:39;;;;;;;;;;;;;;;;;;5322293;28;19904;-67
2021/12/30 15:10:10;;;;;;;;;;;;;;;;;;5312034;28;19943;-67
2021/12/30 15:12:41;;;;;;;;;;;;;;;;;;5306102;28;19908;-68
2021/12/30 15:15:13;;;;;;;;;;;;;;;;;;5303413;28;19908;-67
2021/12/30 15:17:44;;;;;;;;;;;;;;;;;;5303104;28;19916;-68
2021/12/30 15:20:15;;;;;;;;;;;;;;;;;;5307199;28;20423;-67
2021/12/30 15:22:46;;;;;;;;;;;;;;;;;;5303036;28;19908;-68
2021/12/30 15:25:18;;;;;;;;;;;;;;;;;;5304380;28;19911;-67
2021/12/30 15:27:49;;;;;;;;;;;;;;;;;;5303241;28;20017;-67
2021/12/30 15:30:22;;;;;;;;;;;;;;;;;;5303167;28;19904;-67
2021/12/30 15:32:53;;;;;;;;;;;;;;;;;;5302224;28;19904;-67
2021/12/30 15:35:24;;;;;;;;;;;;;;;;;;5303290;28;19930;-67
2021/12/30 15:37:55;;;;;;;;;;;;;;;;;;5302978;28;19962;-69
2021/12/30 15:40:27;;;;;;;;;;;;;;;;;;5303843;28;19959;-67
2021/12/30 15:42:59;;;;;;;;;;;;;;;;;;5301622;28;19915;-67
2021/12/30 15:45:30;;;;;;;;;;;;;;;;;;5315340;28;19925;-67
2021/12/30 15:48:01;;;;;;;;;;;;;;;;;;5323636;28;19919;-67
2021/12/30 15:50:32;;;;;;;;;;;;;;;;;;5323709;28;19907;-67
2021/12/30 15:53:03;;;;;;;;;;;;;;;;;;5323821;28;19950;-67
2021/12/30 15:55:34;;;;;;;;;;;;;;;;;;5323715;28;20358;-67
2021/12/30 15:58:05;;;;;;;;;;;;;;;;;;5322623;28;19951;-67
2021/12/30 16:00:36;;;;;;;;;;;;;;;;;;5324222;28;20356;-67
2021/12/30 16:03:08;;;;;;;;;;;;;;;;;;5323980;28;19899;-66
2021/12/30 16:05:39;;;;;;;;;;;;;;;;;;5322291;28;19998;-66
2021/12/30 16:08:11;;;;;;;;;;;;;;;;;;5324431;28;20360;-67
2021/12/30 16:10:42;;;;;;;;;;;;;;;;;;5322598;28;19957;-67
2021/12/30 16:13:14;;;;;;;;;;;;;;;;;;5324676;28;19903;-67
2021/12/30 16:15:45;;;;;;;;;;;;;;;;;;5322665;28;19908;-67
2021/12/30 16:18:19;;;;;;;;;;;;;;;;;;5323222;28;19958;-67
2021/12/30 16:20:50;;;;;;;;;;;;;;;;;;5323970;28;19904;-67
2021/12/30 16:23:21;;;;;;;;;;;;;;;;;;5324396;28;19930;-67
2021/12/30 16:25:52;;;;;;;;;;;;;;;;;;5322857;28;20331;-67
2021/12/30 16:28:23;;;;;;;;;;;;;;;;;;5324008;28;19994;-67
2021/12/30 16:30:54;;;;;;;;;;;;;;;;;;5323583;28;20416;-67
2021/12/30 16:33:27;;;;;;;;;;;;;;;;;;5323611;28;19910;-67
2021/12/30 16:35:58;;;;;;;;;;;;;;;;;;5323614;28;19971;-67
2021/12/30 16:38:30;;;;;;;;;;;;;;;;;;5323247;28;20419;-67
2021/12/30 16:41:01;;;;;;;;;;;;;;;;;;5322135;28;19904;-66
2021/12/30 16:43:32;;;;;;;;;;;;;;;;;;5322584;28;19926;-67
2021/12/30 16:46:03;;;;;;;;;;;;;;;;;;5321777;28;19956;-67
2021/12/30 16:48:35;;;;;;;;;;;;;;;;;;5323408;28;19919;-67
2021/12/30 16:51:06;;;;;;;;;;;;;;;;;;5322785;28;19910;-67
2021/12/30 16:53:37;;;;;;;;;;;;;;;;;;5322187;28;19904;-68
2021/12/30 16:56:08;;;;;;;;;;;;;;;;;;5322767;28;19953;-67
2021/12/30 16:58:39;;;;;;;;;;;;;;;;;;5322668;28;19993;-67
2021/12/30 17:01:11;;;;;;;;;;;;;;;;;;5322780;28;19923;-67
2021/12/30 17:03:44;;;;;;;;;;;;;;;;;;5322604;27;19903;-67
2021/12/30 17:06:15;;;;;;;;;;;;;;;;;;5323379;28;20370;-67
2021/12/30 17:08:46;;;;;;;;;;;;;;;;;;5321695;28;19957;-67
2021/12/30 17:11:17;;;;;;;;;;;;;;;;;;5323649;28;19966;-67
2021/12/30 17:13:48;;;;;;;;;;;;;;;;;;5322274;28;19908;-67